createdAt,value
2018-09-05T00:00:39.524Z,4.00
2018-09-05T00:01:39.585Z,4.00
2018-09-05T00:02:39.647Z,4.00
2018-09-05T00:03:39.711Z,4.00
2018-09-05T00:04:39.774Z,4.00
2018-09-05T00:05:39.835Z,4.00
2018-09-05T00:06:39.898Z,4.00
2018-09-05T00:07:39.960Z,4.00
2018-09-05T00:08:40.022Z,4.00
2018-09-05T00:09:40.086Z,4.00
2018-09-05T00:10:40.147Z,4.00
2018-09-05T00:11:40.210Z,4.00
2018-09-05T00:12:40.272Z,4.00
2018-09-05T00:13:40.333Z,4.00
2018-09-05T00:14:40.397Z,4.00
2018-09-05T00:15:40.461Z,4.00
2018-09-05T00:16:40.522Z,4.00
2018-09-05T00:17:40.586Z,4.00
2018-09-05T00:18:40.647Z,4.00
2018-09-05T00:19:40.747Z,4.00
2018-09-05T00:20:40.771Z,4.00
2018-09-05T00:21:40.833Z,4.00
2018-09-05T00:22:40.897Z,4.00
2018-09-05T00:23:40.967Z,4.00
2018-09-05T00:24:41.020Z,4.00
2018-09-05T00:25:41.083Z,4.00
2018-09-05T00:26:41.145Z,4.00
2018-09-05T00:27:41.208Z,4.00
2018-09-05T00:28:41.269Z,4.00
2018-09-05T00:29:41.332Z,4.00
2018-09-05T00:30:41.398Z,4.00
2018-09-05T00:31:41.457Z,4.00
2018-09-05T00:32:41.519Z,4.00
2018-09-05T00:33:41.581Z,4.00
2018-09-05T00:34:41.643Z,4.00
2018-09-05T00:35:41.706Z,4.00
2018-09-05T00:36:41.767Z,4.00
2018-09-05T00:37:41.830Z,4.00
2018-09-05T00:38:41.893Z,4.00
2018-09-05T00:39:41.955Z,4.00
2018-09-05T00:40:42.017Z,4.00
2018-09-05T00:41:42.079Z,4.00
2018-09-05T00:42:42.141Z,4.00
2018-09-05T00:43:42.454Z,4.00
2018-09-05T00:44:42.266Z,4.00
2018-09-05T00:45:42.327Z,4.00
2018-09-05T00:46:42.390Z,4.00
2018-09-05T00:47:42.452Z,4.00
2018-09-05T00:48:42.515Z,4.00
2018-09-05T00:49:42.576Z,4.00
2018-09-05T00:50:42.638Z,4.00
2018-09-05T00:51:42.701Z,4.00
2018-09-05T00:52:42.762Z,4.00
2018-09-05T00:53:42.825Z,4.00
2018-09-05T00:54:42.887Z,4.00
2018-09-05T00:55:42.950Z,4.00
2018-09-05T00:56:43.011Z,4.00
2018-09-05T00:57:43.075Z,4.00
2018-09-05T00:58:43.136Z,4.00
2018-09-05T00:59:43.198Z,4.00
2018-09-05T01:00:43.261Z,4.00
2018-09-05T01:01:43.322Z,4.00
2018-09-05T01:02:43.389Z,4.00
2018-09-05T01:03:43.446Z,4.00
2018-09-05T01:04:43.508Z,4.00
2018-09-05T01:05:43.570Z,4.00
2018-09-05T01:06:43.632Z,4.00
2018-09-05T01:07:43.696Z,4.00
2018-09-05T01:08:43.756Z,4.00
2018-09-05T01:09:43.819Z,4.00
2018-09-05T01:10:43.884Z,4.00
2018-09-05T01:11:43.944Z,4.00
2018-09-05T01:12:44.004Z,4.00
2018-09-05T01:13:44.066Z,4.00
2018-09-05T01:14:44.129Z,4.00
2018-09-05T01:15:44.192Z,4.00
2018-09-05T01:16:44.252Z,4.00
2018-09-05T01:17:44.315Z,4.00
2018-09-05T01:18:44.377Z,4.00
2018-09-05T01:19:44.440Z,4.00
2018-09-05T01:20:44.501Z,4.00
2018-09-05T01:21:44.564Z,4.00
2018-09-05T01:22:44.627Z,4.00
2018-09-05T01:23:44.687Z,4.00
2018-09-05T01:24:44.750Z,4.00
2018-09-05T01:25:44.811Z,4.00
2018-09-05T01:26:44.874Z,4.00
2018-09-05T01:27:44.935Z,4.00
2018-09-05T01:28:44.998Z,4.00
2018-09-05T01:29:45.064Z,4.00
2018-09-05T01:30:45.121Z,4.00
2018-09-05T01:31:45.183Z,4.00
2018-09-05T01:32:45.244Z,4.00
2018-09-05T01:33:45.556Z,4.00
2018-09-05T01:34:45.368Z,4.00
2018-09-05T01:35:45.430Z,4.00
2018-09-05T01:36:45.491Z,4.00
2018-09-05T01:37:45.555Z,4.00
2018-09-05T01:38:45.616Z,4.00
2018-09-05T01:39:45.679Z,4.00
2018-09-05T01:40:45.742Z,4.00
2018-09-05T01:41:45.803Z,4.00
2018-09-05T01:42:45.895Z,4.00
2018-09-05T01:43:45.927Z,4.00
2018-09-05T01:44:45.987Z,4.00
2018-09-05T01:45:46.049Z,4.00
2018-09-05T01:46:46.112Z,4.00
2018-09-05T01:47:46.174Z,4.00
2018-09-05T01:48:46.236Z,4.00
2018-09-05T01:49:46.297Z,4.00
2018-09-05T01:50:46.359Z,4.00
2018-09-05T01:51:46.426Z,4.00
2018-09-05T01:52:46.482Z,4.00
2018-09-05T01:53:46.545Z,4.00
2018-09-05T01:54:46.607Z,4.00
2018-09-05T01:55:46.668Z,4.00
2018-09-05T01:56:46.728Z,4.00
2018-09-05T01:57:46.792Z,4.00
2018-09-05T01:58:46.904Z,4.00
2018-09-05T01:59:46.949Z,4.00
2018-09-05T02:00:46.976Z,4.00
2018-09-05T02:01:47.038Z,4.00
2018-09-05T02:02:47.101Z,4.00
2018-09-05T02:03:47.162Z,4.00
2018-09-05T02:04:47.223Z,4.00
2018-09-05T02:05:47.285Z,4.00
2018-09-05T02:06:47.347Z,4.00
2018-09-05T02:07:47.412Z,4.00
2018-09-05T02:08:47.470Z,4.00
2018-09-05T02:09:47.533Z,4.00
2018-09-05T02:10:47.595Z,4.00
2018-09-05T02:11:47.656Z,4.00
2018-09-05T02:12:47.717Z,4.00
2018-09-05T02:13:47.778Z,4.00
2018-09-05T02:14:47.841Z,4.00
2018-09-05T02:15:47.901Z,4.00
2018-09-05T02:16:47.963Z,4.00
2018-09-05T02:17:48.027Z,4.00
2018-09-05T02:18:48.088Z,4.00
2018-09-05T02:19:48.149Z,4.00
2018-09-05T02:20:48.210Z,4.00
2018-09-05T02:21:48.275Z,4.00
2018-09-05T02:22:48.334Z,4.00
2018-09-05T02:23:48.396Z,4.00
2018-09-05T02:24:48.457Z,4.00
2018-09-05T02:25:48.518Z,4.00
2018-09-05T02:26:48.580Z,4.00
2018-09-05T02:27:48.645Z,4.00
2018-09-05T02:28:48.704Z,4.00
2018-09-05T02:29:48.765Z,4.00
2018-09-05T02:30:48.827Z,4.00
2018-09-05T02:31:48.888Z,4.00
2018-09-05T02:32:48.953Z,4.00
2018-09-05T02:33:49.010Z,4.00
2018-09-05T02:34:49.326Z,4.00
2018-09-05T02:35:49.135Z,4.00
2018-09-05T02:36:49.196Z,4.00
2018-09-05T02:37:49.258Z,4.00
2018-09-05T02:38:49.321Z,4.00
2018-09-05T02:39:49.382Z,4.00
2018-09-05T02:40:49.556Z,4.00
2018-09-05T02:41:49.505Z,4.00
2018-09-05T02:42:49.566Z,4.00
2018-09-05T02:43:49.628Z,4.00
2018-09-05T02:44:49.689Z,4.00
2018-09-05T02:45:49.750Z,4.00
2018-09-05T02:46:49.812Z,4.00
2018-09-05T02:47:49.874Z,4.00
2018-09-05T02:48:49.934Z,4.00
2018-09-05T02:49:49.996Z,4.00
2018-09-05T02:50:50.058Z,4.00
2018-09-05T02:51:50.120Z,4.00
2018-09-05T02:52:50.191Z,4.00
2018-09-05T02:53:50.244Z,4.00
2018-09-05T02:54:50.307Z,4.00
2018-09-05T02:55:50.367Z,4.00
2018-09-05T02:56:50.427Z,4.00
2018-09-05T02:57:50.490Z,4.00
2018-09-05T02:58:50.550Z,4.00
2018-09-05T02:59:50.611Z,4.00
2018-09-05T03:00:50.672Z,4.00
2018-09-05T03:01:50.734Z,4.00
2018-09-05T03:02:50.796Z,4.00
2018-09-05T03:03:50.858Z,4.00
2018-09-05T03:04:50.919Z,4.00
2018-09-05T03:05:50.981Z,4.00
2018-09-05T03:06:51.048Z,4.00
2018-09-05T03:07:51.104Z,4.00
2018-09-05T03:08:51.165Z,4.00
2018-09-05T03:09:51.226Z,4.00
2018-09-05T03:10:51.287Z,4.00
2018-09-05T03:11:51.352Z,4.00
2018-09-05T03:12:51.411Z,4.00
2018-09-05T03:13:51.472Z,4.00
2018-09-05T03:14:51.535Z,4.00
2018-09-05T03:15:51.596Z,4.00
2018-09-05T03:16:51.659Z,4.00
2018-09-05T03:17:51.718Z,4.00
2018-09-05T03:18:51.780Z,4.00
2018-09-05T03:19:51.841Z,4.00
2018-09-05T03:20:51.905Z,4.00
2018-09-05T03:21:51.969Z,4.00
2018-09-05T03:22:52.026Z,4.00
2018-09-05T03:23:52.089Z,4.00
2018-09-05T03:24:52.149Z,4.00
2018-09-05T03:25:52.211Z,4.00
2018-09-05T03:26:52.276Z,4.00
2018-09-05T03:27:52.335Z,4.00
2018-09-05T03:28:52.393Z,4.00
2018-09-05T03:29:52.456Z,4.00
2018-09-05T03:30:52.525Z,4.00
2018-09-05T03:31:52.579Z,4.00
2018-09-05T03:32:52.736Z,4.00
2018-09-05T03:33:52.701Z,4.00
2018-09-05T03:34:52.764Z,4.00
2018-09-05T03:35:52.824Z,4.00
2018-09-05T03:36:52.884Z,4.00
2018-09-05T03:37:52.946Z,4.00
2018-09-05T03:38:53.008Z,4.00
2018-09-05T03:39:53.071Z,4.00
2018-09-05T03:40:53.131Z,4.00
2018-09-05T03:41:53.191Z,4.00
2018-09-05T03:42:53.254Z,4.00
2018-09-05T03:43:53.316Z,4.00
2018-09-05T03:44:53.379Z,4.00
2018-09-05T03:45:53.444Z,4.00
2018-09-05T03:46:53.502Z,4.00
2018-09-05T03:47:53.570Z,4.00
2018-09-05T03:48:53.620Z,4.00
2018-09-05T03:49:53.768Z,4.00
2018-09-05T03:50:53.744Z,4.00
2018-09-05T03:51:53.813Z,4.00
2018-09-05T03:52:53.867Z,4.00
2018-09-05T03:53:53.928Z,4.00
2018-09-05T03:54:53.989Z,4.00
2018-09-05T03:55:54.051Z,4.00
2018-09-05T03:56:54.112Z,4.00
2018-09-05T03:57:54.178Z,4.00
2018-09-05T03:58:54.235Z,4.00
2018-09-05T03:59:54.296Z,4.00
2018-09-05T04:00:54.508Z,4.00
2018-09-05T04:01:54.418Z,4.00
2018-09-05T04:02:54.479Z,4.00
2018-09-05T04:03:54.542Z,4.00
2018-09-05T04:04:54.606Z,4.00
2018-09-05T04:05:54.664Z,4.00
2018-09-05T04:06:54.724Z,4.00
2018-09-05T04:07:54.785Z,4.00
2018-09-05T04:08:54.847Z,4.00
2018-09-05T04:09:54.908Z,4.00
2018-09-05T04:10:54.969Z,4.00
2018-09-05T04:11:55.030Z,4.00
2018-09-05T04:12:55.091Z,4.00
2018-09-05T04:13:55.153Z,4.00
2018-09-05T04:14:55.214Z,4.00
2018-09-05T04:15:55.274Z,4.00
2018-09-05T04:16:55.336Z,8.00
2018-09-05T04:17:55.398Z,8.00
2018-09-05T04:18:55.459Z,8.00
2018-09-05T04:19:55.520Z,8.00
2018-09-05T04:20:55.581Z,8.00
2018-09-05T04:21:55.684Z,4.00
2018-09-05T04:22:55.703Z,8.00
2018-09-05T04:23:55.765Z,8.00
2018-09-05T04:24:55.828Z,12.00
2018-09-05T04:25:55.887Z,8.00
2018-09-05T04:26:55.949Z,12.00
2018-09-05T04:27:56.010Z,12.00
2018-09-05T04:28:56.072Z,16.00
2018-09-05T04:29:56.137Z,16.00
2018-09-05T04:30:56.194Z,16.00
2018-09-05T04:31:56.255Z,20.00
2018-09-05T04:32:56.315Z,20.00
2018-09-05T04:33:56.378Z,24.00
2018-09-05T04:34:56.438Z,28.00
2018-09-05T04:35:56.682Z,32.00
2018-09-05T04:36:56.560Z,40.00
2018-09-05T04:37:56.621Z,40.00
2018-09-05T04:38:56.683Z,48.00
2018-09-05T04:39:56.747Z,56.00
2018-09-05T04:40:56.805Z,64.00
2018-09-05T04:41:56.866Z,72.00
2018-09-05T04:42:56.928Z,84.00
2018-09-05T04:43:56.989Z,92.00
2018-09-05T04:44:57.050Z,108.00
2018-09-05T04:45:57.115Z,120.00
2018-09-05T04:46:57.178Z,136.00
2018-09-05T04:47:57.233Z,152.00
2018-09-05T04:48:57.294Z,172.00
2018-09-05T04:49:57.357Z,192.00
2018-09-05T04:50:57.416Z,208.00
2018-09-05T04:51:57.478Z,232.00
2018-09-05T04:52:57.538Z,252.00
2018-09-05T04:53:57.645Z,280.00
2018-09-05T04:54:58.553Z,304.00
2018-09-05T04:55:57.727Z,332.00
2018-09-05T04:56:57.787Z,360.00
2018-09-05T04:57:57.879Z,392.00
2018-09-05T04:58:57.906Z,428.00
2018-09-05T04:59:57.967Z,460.00
2018-09-05T05:00:58.278Z,500.00
2018-09-05T05:01:58.089Z,544.00
2018-09-05T05:02:58.150Z,584.00
2018-09-05T05:03:58.211Z,620.00
2018-09-05T05:04:58.606Z,652.00
2018-09-05T05:05:58.333Z,692.00
2018-09-05T05:06:58.398Z,728.00
2018-09-05T05:07:58.456Z,768.00
2018-09-05T05:08:58.540Z,812.00
2018-09-05T05:09:58.582Z,848.00
2018-09-05T05:10:58.638Z,888.00
2018-09-05T05:11:58.699Z,924.00
2018-09-05T05:12:58.760Z,956.00
2018-09-05T05:13:58.823Z,1000.00
2018-09-05T05:14:58.883Z,1044.00
2018-09-05T05:15:59.326Z,1092.00
2018-09-05T05:16:59.007Z,1140.00
2018-09-05T05:17:59.068Z,1192.00
2018-09-05T05:18:59.128Z,1240.00
2018-09-05T05:19:59.226Z,1292.00
2018-09-05T05:20:59.249Z,1340.00
2018-09-05T05:21:59.311Z,1392.00
2018-09-05T05:22:59.374Z,1436.00
2018-09-05T05:23:59.469Z,1476.00
2018-09-05T05:24:59.494Z,1516.00
2018-09-05T05:25:59.555Z,1556.00
2018-09-05T05:26:59.618Z,1608.00
2018-09-05T05:27:59.679Z,1664.00
2018-09-05T05:29:00.195Z,1724.00
2018-09-05T05:29:59.799Z,1788.00
2018-09-05T05:30:59.863Z,1856.00
2018-09-05T05:31:59.924Z,1916.00
2018-09-05T05:33:00.012Z,1964.00
2018-09-05T05:34:00.045Z,2020.00
2018-09-05T05:35:00.110Z,2068.00
2018-09-05T05:36:00.168Z,2116.00
2018-09-05T05:37:00.228Z,2156.00
2018-09-05T05:38:00.290Z,2184.00
2018-09-05T05:39:00.354Z,2208.00
2018-09-05T05:40:00.413Z,2228.00
2018-09-05T05:41:00.475Z,2260.00
2018-09-05T05:42:00.536Z,2284.00
2018-09-05T05:43:00.596Z,2300.00
2018-09-05T05:44:00.657Z,2328.00
2018-09-05T05:45:00.719Z,2352.00
2018-09-05T05:46:01.091Z,2384.00
2018-09-05T05:47:00.841Z,2420.00
2018-09-05T05:48:00.903Z,2448.00
2018-09-05T05:49:00.964Z,2484.00
2018-09-05T05:50:01.025Z,2516.00
2018-09-05T05:51:01.086Z,2552.00
2018-09-05T05:52:01.149Z,2592.00
2018-09-05T05:53:01.213Z,2628.00
2018-09-05T05:54:01.269Z,2664.00
2018-09-05T05:55:01.370Z,2696.00
2018-09-05T05:56:01.395Z,2740.00
2018-09-05T05:57:01.453Z,2780.00
2018-09-05T05:58:01.515Z,2832.00
2018-09-05T05:59:01.576Z,2884.00
2018-09-05T06:00:01.638Z,2936.00
2018-09-05T06:01:01.730Z,2988.00
2018-09-05T06:02:01.760Z,3040.00
2018-09-05T06:03:01.821Z,3096.00
2018-09-05T06:04:01.883Z,3148.00
2018-09-05T06:05:01.944Z,3196.00
2018-09-05T06:06:02.032Z,3236.00
2018-09-05T06:07:02.068Z,3280.00
2018-09-05T06:08:02.128Z,3320.00
2018-09-05T06:09:02.189Z,3364.00
2018-09-05T06:10:02.251Z,3412.00
2018-09-05T06:11:02.312Z,3464.00
2018-09-05T06:12:02.386Z,3516.00
2018-09-05T06:13:02.434Z,3564.00
2018-09-05T06:14:02.496Z,3608.00
2018-09-05T06:15:02.558Z,3640.00
2018-09-05T06:16:02.624Z,3664.00
2018-09-05T06:17:02.931Z,3680.00
2018-09-05T06:18:02.796Z,3692.00
2018-09-05T06:19:03.485Z,3696.00
2018-09-05T06:20:02.877Z,3700.00
2018-09-05T06:21:02.962Z,3696.00
2018-09-05T06:22:02.989Z,3696.00
2018-09-05T06:23:03.050Z,3692.00
2018-09-05T06:24:03.172Z,3692.00
2018-09-05T06:25:03.269Z,3696.00
2018-09-05T06:26:03.236Z,3712.00
2018-09-05T06:27:03.296Z,3740.00
2018-09-05T06:28:03.361Z,3768.00
2018-09-05T06:29:03.420Z,3804.00
2018-09-05T06:30:03.513Z,3828.00
2018-09-05T06:31:03.728Z,3852.00
2018-09-05T06:32:03.606Z,3912.00
2018-09-05T06:33:03.704Z,3992.00
2018-09-05T06:34:03.782Z,4092.00
2018-09-05T06:35:03.792Z,4188.00
2018-09-05T06:36:04.161Z,4288.00
2018-09-05T06:37:03.913Z,4408.00
2018-09-05T06:38:03.976Z,4524.00
2018-09-05T06:39:04.073Z,4616.00
2018-09-05T06:40:04.103Z,4680.00
2018-09-05T06:41:04.162Z,4740.00
2018-09-05T06:42:04.221Z,4784.00
2018-09-05T06:43:04.323Z,4824.00
2018-09-05T06:44:04.583Z,4868.00
2018-09-05T06:45:04.500Z,4908.00
2018-09-05T06:46:04.514Z,4952.00
2018-09-05T06:47:04.569Z,4984.00
2018-09-05T06:48:04.631Z,4964.00
2018-09-05T06:49:04.690Z,4940.00
2018-09-05T06:50:04.788Z,4940.00
2018-09-05T06:51:05.823Z,4984.00
2018-09-05T06:52:04.923Z,5080.00
2018-09-05T06:53:04.950Z,5228.00
2018-09-05T06:54:05.321Z,5396.00
2018-09-05T06:55:05.030Z,5560.00
2018-09-05T06:56:05.092Z,5680.00
2018-09-05T06:57:05.153Z,5736.00
2018-09-05T06:58:05.270Z,5768.00
2018-09-05T06:59:05.279Z,5828.00
2018-09-05T07:00:05.341Z,5904.00
2018-09-05T07:01:05.402Z,6028.00
2018-09-05T07:02:05.465Z,6204.00
2018-09-05T07:03:05.528Z,6400.00
2018-09-05T07:04:05.590Z,6584.00
2018-09-05T07:05:06.113Z,6700.00
2018-09-05T07:06:05.715Z,6708.00
2018-09-05T07:07:05.844Z,6648.00
2018-09-05T07:08:05.840Z,6560.00
2018-09-05T07:09:05.902Z,6460.00
2018-09-05T07:10:05.984Z,6404.00
2018-09-05T07:11:06.029Z,6436.00
2018-09-05T07:12:06.092Z,6496.00
2018-09-05T07:13:06.155Z,6564.00
2018-09-05T07:14:06.233Z,6628.00
2018-09-05T07:15:06.283Z,6708.00
2018-09-05T07:16:06.343Z,6776.00
2018-09-05T07:17:06.406Z,6840.00
2018-09-05T07:18:06.468Z,6928.00
2018-09-05T07:19:06.533Z,7024.00
2018-09-05T07:20:06.595Z,7104.00
2018-09-05T07:21:06.663Z,7176.00
2018-09-05T07:22:06.861Z,7252.00
2018-09-05T07:23:06.784Z,7332.00
2018-09-05T07:24:06.847Z,7436.00
2018-09-05T07:25:06.969Z,7524.00
2018-09-05T07:26:06.973Z,7640.00
2018-09-05T07:27:07.036Z,7816.00
2018-09-05T07:28:07.101Z,8052.00
2018-09-05T07:29:07.161Z,8372.00
2018-09-05T07:30:07.226Z,8796.00
2018-09-05T07:31:07.289Z,9120.00
2018-09-05T07:32:07.354Z,9436.00
2018-09-05T07:33:07.416Z,9704.00
2018-09-05T07:34:07.480Z,9976.00
2018-09-05T07:35:07.542Z,10236.00
2018-09-05T07:36:07.614Z,10348.00
2018-09-05T07:37:07.673Z,10352.00
2018-09-05T07:38:07.818Z,10280.00
2018-09-05T07:39:07.797Z,10224.00
2018-09-05T07:40:07.862Z,10120.00
2018-09-05T07:41:07.924Z,10104.00
2018-09-05T07:42:07.988Z,10144.00
2018-09-05T07:43:08.052Z,10236.00
2018-09-05T07:44:08.119Z,10348.00
2018-09-05T07:45:08.180Z,10476.00
2018-09-05T07:46:08.245Z,10452.00
2018-09-05T07:47:08.308Z,10492.00
2018-09-05T07:48:08.373Z,10508.00
2018-09-05T07:49:08.436Z,10476.00
2018-09-05T07:50:08.501Z,10420.00
2018-09-05T07:51:08.642Z,10608.00
2018-09-05T07:52:08.645Z,10628.00
2018-09-05T07:53:08.694Z,10780.00
2018-09-05T07:54:08.757Z,10728.00
2018-09-05T07:55:08.822Z,10808.00
2018-09-05T07:56:08.888Z,10836.00
2018-09-05T07:57:08.955Z,10916.00
2018-09-05T07:58:09.017Z,11032.00
2018-09-05T07:59:09.082Z,11172.00
2018-09-05T08:00:09.147Z,11320.00
2018-09-05T08:01:09.212Z,11476.00
2018-09-05T08:02:09.275Z,11600.00
2018-09-05T08:03:09.341Z,11744.00
2018-09-05T08:04:09.405Z,11884.00
2018-09-05T08:05:09.471Z,12100.00
2018-09-05T08:06:09.919Z,12404.00
2018-09-05T08:07:09.603Z,12780.00
2018-09-05T08:08:09.666Z,13212.00
2018-09-05T08:09:09.730Z,13572.00
2018-09-05T08:10:09.795Z,13852.00
2018-09-05T08:11:09.860Z,14088.00
2018-09-05T08:12:09.925Z,14264.00
2018-09-05T08:13:09.990Z,14400.00
2018-09-05T08:14:10.061Z,14496.00
2018-09-05T08:15:10.120Z,14608.00
2018-09-05T08:16:10.187Z,14664.00
2018-09-05T08:17:10.251Z,14800.00
2018-09-05T08:18:10.342Z,14912.00
2018-09-05T08:19:10.382Z,14896.00
2018-09-05T08:20:10.448Z,14836.00
2018-09-05T08:21:10.513Z,14800.00
2018-09-05T08:22:10.577Z,14776.00
2018-09-05T08:23:10.643Z,14788.00
2018-09-05T08:24:10.773Z,14924.00
2018-09-05T08:25:10.779Z,15120.00
2018-09-05T08:26:10.842Z,15272.00
2018-09-05T08:27:10.908Z,15384.00
2018-09-05T08:28:11.003Z,15560.00
2018-09-05T08:29:11.052Z,15704.00
2018-09-05T08:30:11.176Z,15708.00
2018-09-05T08:31:11.173Z,15756.00
2018-09-05T08:32:11.238Z,15904.00
2018-09-05T08:33:11.304Z,16072.00
2018-09-05T08:34:11.370Z,16208.00
2018-09-05T08:35:11.623Z,16228.00
2018-09-05T08:36:11.897Z,16144.00
2018-09-05T08:37:11.839Z,15968.00
2018-09-05T08:39:11.703Z,15676.00
2018-09-05T08:40:11.770Z,15708.00
2018-09-05T08:41:11.842Z,15812.00
2018-09-05T08:42:11.908Z,15900.00
2018-09-05T08:43:11.970Z,16004.00
2018-09-05T08:44:12.329Z,16076.00
2018-09-05T08:45:12.371Z,16188.00
2018-09-05T08:46:12.399Z,16340.00
2018-09-05T08:47:12.255Z,16440.00
2018-09-05T08:48:12.391Z,16528.00
2018-09-05T08:49:12.370Z,16568.00
2018-09-05T08:50:12.439Z,16644.00
2018-09-05T08:51:12.508Z,16812.00
2018-09-05T08:52:12.574Z,17084.00
2018-09-05T08:53:12.684Z,17268.00
2018-09-05T08:54:12.708Z,17308.00
2018-09-05T08:55:12.800Z,17212.00
2018-09-05T08:56:12.937Z,17108.00
2018-09-05T08:57:12.910Z,16944.00
2018-09-05T08:58:12.993Z,16728.00
2018-09-05T08:59:13.045Z,16560.00
2018-09-05T09:00:13.116Z,16492.00
2018-09-05T09:01:13.180Z,16504.00
2018-09-05T09:02:13.247Z,16608.00
2018-09-05T09:03:13.315Z,16876.00
2018-09-05T09:04:13.386Z,17092.00
2018-09-05T09:05:13.449Z,17180.00
2018-09-05T09:06:13.518Z,16852.00
2018-09-05T09:07:13.586Z,16372.00
2018-09-05T09:08:13.654Z,15932.00
2018-09-05T09:09:13.722Z,15668.00
2018-09-05T09:10:13.789Z,15584.00
2018-09-05T09:11:13.857Z,15652.00
2018-09-05T09:12:13.926Z,15740.00
2018-09-05T09:13:13.994Z,15716.00
2018-09-05T09:14:14.062Z,15548.00
2018-09-05T09:15:14.131Z,15292.00
2018-09-05T09:16:14.200Z,15020.00
2018-09-05T09:17:14.841Z,14804.00
2018-09-05T09:18:14.335Z,14636.00
2018-09-05T09:19:14.403Z,14540.00
2018-09-05T09:20:14.472Z,14484.00
2018-09-05T09:21:14.538Z,14420.00
2018-09-05T09:22:14.607Z,14272.00
2018-09-05T09:23:14.676Z,14044.00
2018-09-05T09:24:14.746Z,13808.00
2018-09-05T09:25:14.814Z,13592.00
2018-09-05T09:26:14.882Z,13372.00
2018-09-05T09:27:14.950Z,13164.00
2018-09-05T09:28:15.046Z,13004.00
2018-09-05T09:29:15.089Z,12872.00
2018-09-05T09:30:15.158Z,12740.00
2018-09-05T09:31:15.224Z,12572.00
2018-09-05T09:32:15.890Z,12392.00
2018-09-05T09:33:16.236Z,12220.00
2018-09-05T09:34:15.428Z,12080.00
2018-09-05T09:35:15.518Z,11972.00
2018-09-05T09:36:15.566Z,11916.00
2018-09-05T09:37:15.634Z,11892.00
2018-09-05T09:38:15.702Z,11868.00
2018-09-05T09:39:15.783Z,11852.00
2018-09-05T09:40:15.842Z,11792.00
2018-09-05T09:41:15.906Z,11704.00
2018-09-05T09:42:15.975Z,11572.00
2018-09-05T09:43:16.044Z,11408.00
2018-09-05T09:44:16.112Z,11240.00
2018-09-05T09:45:16.180Z,11072.00
2018-09-05T09:46:16.250Z,10920.00
2018-09-05T09:47:16.318Z,10800.00
2018-09-05T09:48:16.388Z,10696.00
2018-09-05T09:49:16.454Z,10684.00
2018-09-05T09:50:16.521Z,10724.00
2018-09-05T09:51:16.591Z,10820.00
2018-09-05T09:52:16.659Z,10980.00
2018-09-05T09:53:16.728Z,11184.00
2018-09-05T09:54:16.795Z,11348.00
2018-09-05T09:55:16.865Z,11372.00
2018-09-05T09:56:16.933Z,11340.00
2018-09-05T09:57:17.002Z,11496.00
2018-09-05T09:58:17.321Z,11576.00
2018-09-05T09:59:17.138Z,11508.00
2018-09-05T10:00:17.212Z,11384.00
2018-09-05T10:01:17.275Z,11232.00
2018-09-05T10:02:17.344Z,11096.00
2018-09-05T10:03:17.451Z,11008.00
2018-09-05T10:04:17.482Z,10956.00
2018-09-05T10:05:17.549Z,10908.00
2018-09-05T10:06:17.618Z,10928.00
2018-09-05T10:07:17.703Z,11000.00
2018-09-05T10:08:17.759Z,11104.00
2018-09-05T10:09:17.824Z,11196.00
2018-09-05T10:10:18.696Z,11260.00
2018-09-05T10:11:18.553Z,11384.00
2018-09-05T10:12:18.032Z,11596.00
2018-09-05T10:13:18.097Z,11944.00
2018-09-05T10:14:18.165Z,12388.00
2018-09-05T10:15:18.236Z,12944.00
2018-09-05T10:16:18.306Z,13472.00
2018-09-05T10:17:18.375Z,13640.00
2018-09-05T10:18:18.441Z,13808.00
2018-09-05T10:19:18.509Z,13888.00
2018-09-05T10:20:18.585Z,13836.00
2018-09-05T10:21:18.646Z,13708.00
2018-09-05T10:22:18.716Z,13672.00
2018-09-05T10:23:18.784Z,13580.00
2018-09-05T10:24:18.854Z,13456.00
2018-09-05T10:25:18.921Z,13652.00
2018-09-05T10:26:18.989Z,14044.00
2018-09-05T10:27:19.060Z,14692.00
2018-09-05T10:28:19.128Z,15400.00
2018-09-05T10:29:19.197Z,15724.00
2018-09-05T10:30:19.265Z,15980.00
2018-09-05T10:31:19.335Z,16116.00
2018-09-05T10:32:19.404Z,16276.00
2018-09-05T10:33:19.472Z,16948.00
2018-09-05T10:34:19.545Z,17520.00
2018-09-05T10:35:19.610Z,17848.00
2018-09-05T10:36:19.680Z,17968.00
2018-09-05T10:37:19.748Z,18100.00
2018-09-05T10:38:19.819Z,18652.00
2018-09-05T10:39:19.890Z,21216.00
2018-09-05T10:40:19.957Z,34848.00
2018-09-05T10:41:20.025Z,50016.00
2018-09-05T10:42:20.097Z,53120.00
2018-09-05T10:43:20.167Z,53760.00
2018-09-05T10:44:20.329Z,53856.00
2018-09-05T10:45:20.307Z,53056.00
2018-09-05T10:46:20.377Z,53184.00
2018-09-05T10:47:20.449Z,53824.00
2018-09-05T10:48:20.520Z,54816.00
2018-09-05T10:49:20.594Z,53376.00
2018-09-05T10:50:20.662Z,54240.00
2018-09-05T10:51:20.735Z,54304.00
2018-09-05T10:52:20.808Z,54464.00
2018-09-05T10:53:20.878Z,53696.00
2018-09-05T10:54:20.951Z,53152.00
2018-09-05T10:55:21.024Z,53408.00
2018-09-05T10:56:21.097Z,53344.00
2018-09-05T10:57:21.169Z,53184.00
2018-09-05T10:58:21.242Z,52800.00
2018-09-05T10:59:21.316Z,52064.00
2018-09-05T11:00:21.391Z,52576.00
2018-09-05T11:01:21.466Z,52736.00
2018-09-05T11:02:21.539Z,51744.00
2018-09-05T11:03:21.613Z,51648.00
2018-09-05T11:04:21.752Z,50816.00
2018-09-05T11:05:22.341Z,49408.00
2018-09-05T11:06:21.836Z,50624.00
2018-09-05T11:07:21.910Z,50592.00
2018-09-05T11:08:21.985Z,50624.00
2018-09-05T11:09:22.059Z,50272.00
2018-09-05T11:10:22.195Z,50080.00
2018-09-05T11:11:22.208Z,49728.00
2018-09-05T11:12:22.284Z,48992.00
2018-09-05T11:13:22.359Z,48384.00
2018-09-05T11:14:22.434Z,48000.00
2018-09-05T11:15:22.510Z,48064.00
2018-09-05T11:16:22.585Z,47712.00
2018-09-05T11:17:22.659Z,47520.00
2018-09-05T11:18:22.734Z,46944.00
2018-09-05T11:19:22.810Z,46272.00
2018-09-05T11:20:22.886Z,45856.00
2018-09-05T11:21:22.987Z,46464.00
2018-09-05T11:22:23.037Z,46112.00
2018-09-05T11:23:23.112Z,45632.00
2018-09-05T11:24:23.190Z,44960.00
2018-09-05T11:25:23.263Z,44576.00
2018-09-05T11:26:23.344Z,43264.00
2018-09-05T11:27:23.414Z,42912.00
2018-09-05T11:28:23.490Z,42816.00
2018-09-05T11:29:23.565Z,42560.00
2018-09-05T11:30:23.641Z,41984.00
2018-09-05T11:31:23.717Z,42048.00
2018-09-05T11:32:23.792Z,41568.00
2018-09-05T11:33:23.866Z,41184.00
2018-09-05T11:34:23.942Z,39584.00
2018-09-05T11:35:24.018Z,39456.00
2018-09-05T11:36:24.093Z,39072.00
2018-09-05T11:37:24.169Z,39104.00
2018-09-05T11:38:24.244Z,38784.00
2018-09-05T11:39:24.319Z,38688.00
2018-09-05T11:40:24.396Z,38496.00
2018-09-05T11:41:24.470Z,37824.00
2018-09-05T11:42:24.546Z,37792.00
2018-09-05T11:43:24.622Z,37728.00
2018-09-05T11:44:24.697Z,37664.00
2018-09-05T11:45:24.772Z,37344.00
2018-09-05T11:46:24.847Z,37280.00
2018-09-05T11:47:24.927Z,36800.00
2018-09-05T11:48:24.998Z,36288.00
2018-09-05T11:49:25.095Z,34880.00
2018-09-05T11:50:25.149Z,19520.00
2018-09-05T11:51:25.225Z,17392.00
2018-09-05T11:52:25.302Z,29792.00
2018-09-05T11:53:25.374Z,33696.00
2018-09-05T11:54:25.451Z,36832.00
2018-09-05T11:55:25.542Z,36704.00
2018-09-05T11:56:25.602Z,36448.00
2018-09-05T11:57:25.734Z,36416.00
2018-09-05T11:58:25.752Z,37056.00
2018-09-05T11:59:25.832Z,34272.00
2018-09-05T12:00:25.902Z,26112.00
2018-09-05T12:01:25.979Z,37760.00
2018-09-05T12:02:26.064Z,38112.00
2018-09-05T12:03:26.130Z,17580.00
2018-09-05T12:04:26.206Z,16200.00
2018-09-05T12:05:26.281Z,15544.00
2018-09-05T12:06:26.355Z,15776.00
2018-09-05T12:07:26.431Z,18236.00
2018-09-05T12:08:26.506Z,23968.00
2018-09-05T12:09:26.593Z,41024.00
2018-09-05T12:10:26.655Z,29408.00
2018-09-05T12:11:26.733Z,19968.00
2018-09-05T12:12:26.805Z,17360.00
2018-09-05T12:13:26.878Z,16524.00
2018-09-05T12:14:26.951Z,16508.00
2018-09-05T12:15:27.026Z,25312.00
2018-09-05T12:16:27.099Z,26528.00
2018-09-05T12:17:27.173Z,17532.00
2018-09-05T12:18:27.245Z,17688.00
2018-09-05T12:19:27.318Z,17748.00
2018-09-05T12:20:27.391Z,17540.00
2018-09-05T12:21:27.467Z,17152.00
2018-09-05T12:22:27.536Z,17240.00
2018-09-05T12:23:27.607Z,18560.00
2018-09-05T12:24:27.997Z,32768.00
2018-09-05T12:25:27.752Z,75648.00